• Join FlightAware (Why Join?)
  • Login
  • US Flag 
01:06AM EDT


 

Airport Tracker/Info


-or-


 

Live Flight TrackerFlight Track Log ✈ DAL1406 ✈ 25-Apr-2012 ✈ KLAX - KDTW

Flight Track Log - Related Links

Times and Time Zones

All times are in EDT time to prevent confusion due to time zone crossing. See the DAL1406 flight status page for this flight to view local times or setup timezone preferences in your user account.

Time Position Orientation Groundspeed Altitude Reporting Facility
EDT Latitude Longitude Course Direction KTS MPH feet Rate Location/Type
02:40AM 33.9039 -118.4964 201° Southwest 201 231 3,300  Level Los Angeles Center
02:41AM 33.8469 -118.5222 180° South 228 262 6,000 2,880 Climbing Los Angeles Center
02:42AM 33.7761 -118.5228 175° South 228 262 9,100 2,400 Climbing Los Angeles Center
02:43AM 33.7011 -118.5156 108° East 247 284 10,900 1,680 Climbing Los Angeles Center
02:44AM 33.6758 -118.4200 68° East 242 278 12,500 1,920 Climbing Los Angeles Center
02:45AM 33.7156 -118.3014 72° East 247 284 14,800 2,100 Climbing Los Angeles Center
02:46AM 33.7444 -118.1947 71° East 300 345 16,800 1,920 Climbing Los Angeles Center
02:47AM 33.7778 -118.0756 42° Northeast 335 386 18,700 1,740 Climbing Los Angeles Center
02:48AM 33.8606 -117.9872 37° Northeast 360 414 20,400 1,500 Climbing Los Angeles Center
02:49AM 33.9558 -117.8992 36° Northeast 382 440 21,800 1,440 Climbing Los Angeles Center
02:50AM 34.0531 -117.8136 45° Northeast 406 467 23,300 1,380 Climbing Los Angeles Center
02:51AM 34.1378 -117.7122 48° Northeast 417 480 24,600 1,260 Climbing Los Angeles Center
02:52AM 34.2206 -117.6008 47° Northeast 424 488 25,900 1,200 Climbing Los Angeles Center
02:53AM 34.3203 -117.4719 51° Northeast 447 514 27,000 1,020 Climbing Los Angeles Center
02:54AM 34.3944 -117.3622 49° Northeast 463 533 28,000 960 Climbing Los Angeles Center
02:55AM 34.4811 -117.2425 48° Northeast 468 539 29,000 600 Climbing Los Angeles Center
02:56AM 34.5742 -117.1153 49° Northeast 481 554 29,300 900 Climbing Los Angeles Center
02:57AM 34.6647 -116.9900 49° Northeast 486 559 30,800 1,200 Climbing Los Angeles Center
02:58AM 34.7594 -116.8594 49° Northeast 496 571 31,700 720 Climbing Los Angeles Center
02:59AM 34.8522 -116.7289 49° Northeast 508 585 32,300 900 Climbing Los Angeles Center
03:00AM 34.9486 -116.5953 46° Northeast 508 585 33,500 840 Climbing Los Angeles Center
03:01AM 35.0492 -116.4689 46° Northeast 508 585 34,000 780 Climbing Los Angeles Center
03:02AM 35.1644 -116.3244 46° Northeast 522 601 35,100 960 Climbing Los Angeles Center
03:03AM 35.2667 -116.1925 45° Northeast 528 608 36,000 900 Climbing Los Angeles Center
03:04AM 35.3711 -116.0628 47° Northeast 528 608 37,000 480 Climbing Los Angeles Center
03:05AM 35.4711 -115.9325 44° Northeast 528 608 37,000  Level Los Angeles Center
03:06AM 35.5647 -115.8200 46° Northeast 522 601 37,000  Level Los Angeles Center
03:07AM 35.6689 -115.6867 49° Northeast 522 601 37,000  Level Los Angeles Center
03:08AM 35.7683 -115.5453 65° Northeast 537 618 37,000  Level Los Angeles Center
03:09AM 35.8300 -115.3808 65° Northeast 529 609 37,000  Level Los Angeles Center
03:10AM 35.8936 -115.2139 64° Northeast 524 603 37,000  Level Los Angeles Center
03:11AM 35.9692 -115.0206 67° East 524 603 37,000  Level Los Angeles Center
03:12AM 36.0261 -114.8553 66° East 524 603 37,000  Level Los Angeles Center
03:13AM 36.0847 -114.6925 67° East 524 603 37,000  Level Los Angeles Center
03:14AM 36.1411 -114.5294 66° East 519 597 37,000  Level Los Angeles Center
03:15AM 36.1994 -114.3636 67° East 519 597 37,000  Level Los Angeles Center
03:16AM 36.2553 -114.1975 67° East 519 597 37,000  Level Los Angeles Center
03:17AM 36.3111 -114.0364 68° East 519 597 37,100  Climbing Los Angeles Center
03:18AM 36.3644 -113.8753 67° East 519 597 37,000 -60 Descending Los Angeles Center
03:19AM 36.4197 -113.7136 66° East 507 583 37,000  Level Los Angeles Center
03:20AM 36.4769 -113.5517 68° East 502 578 37,000  Level Los Angeles Center
03:21AM 36.5297 -113.3847 68° East 507 583 37,000  Level Los Angeles Center
03:22AM 36.5842 -113.2172 68° East 507 583 37,000  Level Los Angeles Center
03:23AM 36.6386 -113.0522 68° East 513 590 37,000  Level Los Angeles Center
03:24AM 36.6983 -112.8686 68° East 513 590 37,000  Level Los Angeles Center
03:26AM 36.7950 -112.5617 68° East 528 608 37,000  Level Denver Center
03:27AM 36.8497 -112.3950 68° East 523 602 37,000  Level Denver Center
03:28AM 36.9042 -112.2256 68° East 523 602 37,000  Level Denver Center
03:29AM 36.9586 -112.0558 69° East 517 595 37,000  Level Denver Center
03:30AM 37.0103 -111.8908 68° East 522 601 37,000  Level Denver Center
03:31AM 37.0667 -111.7156 69° East 522 601 37,000  Level Denver Center
03:32AM 37.1178 -111.5500 68° East 517 595 37,000  Level Denver Center
03:33AM 37.1714 -111.3792 69° East 517 595 37,000  Level Denver Center
03:34AM 37.2172 -111.2286 68° East 517 595 37,000  Level Denver Center
03:35AM 37.2700 -111.0625 69° East 517 595 37,000  Level Denver Center
03:36AM 37.3225 -110.8936 70° East 517 595 37,000  Level Denver Center
03:37AM 37.3706 -110.7267 69° East 517 595 37,000  Level Denver Center
03:38AM 37.4206 -110.5625 69° East 511 588 37,000  Level Denver Center
03:39AM 37.4703 -110.3953 67° East 511 588 37,000  Level Denver Center
03:40AM 37.5236 -110.2333 70° East 501 577 37,000  Level Denver Center
03:41AM 37.5775 -110.0475 69° East 501 577 37,000  Level Denver Center
03:42AM 37.6264 -109.8847 70° East 501 577 37,000  Level Denver Center
03:43AM 37.6753 -109.7114 69° East 508 585 37,000  Level Denver Center
03:44AM 37.7211 -109.5614 70° East 508 585 37,000  Level Denver Center
03:45AM 37.7761 -109.3694 70° East 514 592 37,000  Level Denver Center
03:46AM 37.8242 -109.2006 70° East 519 597 37,000  Level Denver Center
03:47AM 37.8739 -109.0314 70° East 519 597 37,000  Level Denver Center
03:48AM 37.9192 -108.8725 71° East 519 597 37,000  Level Denver Center
03:49AM 37.9664 -108.6978 70° East 519 597 37,000  Level Denver Center
03:50AM 38.0200 -108.5069 70° East 525 604 37,000  Level Denver Center
03:51AM 38.0600 -108.3686 72° East 519 597 37,000  Level Denver Center
03:52AM 38.1089 -108.1719 71° East 519 597 37,000  Level Denver Center
03:53AM 38.1617 -107.9806 71° East 519 597 37,000  Level Denver Center
03:54AM 38.2075 -107.8072 71° East 524 603 37,000  Level Denver Center
03:55AM 38.2511 -107.6494 72° East 524 603 37,000  Level Denver Center
03:56AM 38.3008 -107.4544 70° East 519 597 37,000  Level Denver Center
03:57AM 38.3503 -107.2778 71° East 524 603 37,000  Level Denver Center
03:58AM 38.3972 -107.1008 71° East 522 601 37,000  Level Denver Center
03:59AM 38.4375 -106.9475 72° East 515 593 37,000  Level Denver Center
04:00AM 38.4861 -106.7517 71° East 522 601 37,000  Level Denver Center
04:01AM 38.5344 -106.5739 72° East 522 601 37,000  Level Denver Center
04:02AM 38.5761 -106.4119 72° East 522 601 37,000  Level Denver Center
04:03AM 38.6197 -106.2367 73° East 522 601 37,000  Level Denver Center
04:04AM 38.6631 -106.0583 72° East 522 601 37,000  Level Denver Center
04:05AM 38.7081 -105.8772 72° East 522 601 37,000  Level Denver Center
04:06AM 38.7528 -105.6983 72° East 522 601 37,000  Level Denver Center
04:07AM 38.7994 -105.5167 72° East 529 609 37,000  Level Denver Center
04:08AM 38.8478 -105.3214 72° East 523 602 37,000  Level Denver Center
04:09AM 38.8936 -105.1394 73° East 523 602 37,000  Level Denver Center
04:10AM 38.9353 -104.9597 72° East 523 602 37,000  Level Denver Center
04:11AM 38.9808 -104.7797 73° East 523 602 37,000  Level Denver Center
04:12AM 39.0239 -104.5997 73° East 523 602 37,000  Level Denver Center
04:13AM 39.0667 -104.4219 73° East 517 595 37,000  Level Denver Center
04:14AM 39.1092 -104.2442 73° East 517 595 37,000  Level Denver Center
04:15AM 39.1514 -104.0633 73° East 522 601 37,000  Level Denver Center
04:16AM 39.1933 -103.8853 73° East 514 592 37,000  Level Denver Center
04:17AM 39.2350 -103.7039 74° East 519 597 37,000  Level Denver Center
04:18AM 39.2744 -103.5253 73° East 519 597 37,000  Level Denver Center
04:19AM 39.3178 -103.3464 74° East 519 597 37,000  Level Denver Center
04:20AM 39.3564 -103.1672 74° East 519 597 37,000  Level Denver Center
04:21AM 39.3969 -102.9853 74° East 519 597 37,000  Level Denver Center
04:22AM 39.4317 -102.8250 73° East 519 597 37,000  Level Denver Center
04:23AM 39.4736 -102.6425 74° East 519 597 37,000  Level Denver Center
04:24AM 39.5133 -102.4653 75° East 519 597 37,000  Level Denver Center
04:25AM 39.5542 -102.2608 74° East 524 603 37,000  Level Denver Center
04:26AM 39.5933 -102.0858 77° East 519 597 37,000  Level Denver Center
04:27AM 39.6244 -101.9167 74° East 521 600 37,000  Level Denver Center
04:28AM 39.6686 -101.7222 75° East 515 593 37,000  Level Denver Center
04:29AM 39.7069 -101.5414 75° East 515 593 37,000  Level Denver Center
04:30AM 39.7428 -101.3631 74° East 515 593 37,000  Level Denver Center
04:31AM 39.7772 -101.2011 76° East 509 586 37,000  Level Denver Center
04:32AM 39.8161 -101.0033 74° East 509 586 37,000  Level Denver Center
04:33AM 39.8556 -100.8269 76° East 509 586 37,000  Level Denver Center
04:34AM 39.8869 -100.6617 75° East 514 592 37,000  Level Denver Center
04:35AM 39.9233 -100.4797 75° East 509 586 37,000  Level Denver Center
04:36AM 39.9631 -100.2811 77° East 509 586 37,000  Level Denver Center
04:37AM 39.9931 -100.1075 76° East 504 580 37,000  Level Denver Center
04:38AM 40.0286 -99.9250 76° East 504 580 37,000  Level Denver Center
04:39AM 40.0622 -99.7481 76° East 504 580 37,000  Level Denver Center
04:41AM 40.1278 -99.3978 77° East 523 602 37,000  Level Minneapolis Center
04:42AM 40.1603 -99.2164 76° East 523 602 37,000  Level Minneapolis Center
04:43AM 40.1947 -99.0378 77° East 523 602 37,000  Level Minneapolis Center
04:44AM 40.2267 -98.8586 76° East 518 596 37,000  Level Minneapolis Center
04:45AM 40.2606 -98.6769 76° East 513 590 37,000  Level Minneapolis Center
04:46AM 40.2942 -98.4950 77° East 513 590 37,000  Level Minneapolis Center
04:47AM 40.3253 -98.3153 77° East 513 590 37,000  Level Minneapolis Center
04:48AM 40.3583 -98.1328 78° East 513 590 37,000  Level Minneapolis Center
04:49AM 40.3889 -97.9500 77° East 513 590 37,000  Level Minneapolis Center
04:50AM 40.4211 -97.7700 78° East 513 590 37,000  Level Minneapolis Center
04:51AM 40.4511 -97.5897 77° East 508 585 37,000  Level Minneapolis Center
04:52AM 40.4831 -97.4064 80° East 508 585 37,000  Level Minneapolis Center
04:53AM 40.5058 -97.2281 77° East 503 579 37,000  Level Minneapolis Center
04:54AM 40.5369 -97.0472 77° East 503 579 37,000  Level Minneapolis Center
04:55AM 40.5678 -96.8664 78° East 503 579 37,000  Level Minneapolis Center
04:56AM 40.5964 -96.6850 78° East 508 585 37,000  Level Minneapolis Center
04:57AM 40.6244 -96.5036 78° East 503 579 37,000  Level Minneapolis Center
04:58AM 40.6544 -96.3194 78° East 503 579 37,000  Level Minneapolis Center
04:59AM 40.6867 -96.1186 79° East 509 586 37,000  Level Minneapolis Center
05:00AM 40.7139 -95.9367 79° East 509 586 37,000  Level Minneapolis Center
05:01AM 40.7406 -95.7572 78° East 504 580 37,000  Level Minneapolis Center
05:02AM 40.7714 -95.5722 79° East 504 580 37,000  Level Minneapolis Center
05:03AM 40.7978 -95.3872 79° East 510 587 37,000  Level Minneapolis Center
05:04AM 40.8239 -95.2072 79° East 505 581 37,000  Level Minneapolis Center
05:05AM 40.8494 -95.0272 79° East 505 581 37,000  Level Minneapolis Center
05:06AM 40.8769 -94.8444 79° East 505 581 37,000  Level Minneapolis Center
05:07AM 40.9042 -94.6614 80° East 505 581 37,000  Level Minneapolis Center
05:08AM 40.9289 -94.4836 79° East 505 581 37,000  Level Minneapolis Center
05:10AM 40.9781 -94.1528 79° East 510 587 37,000  Level Chicago Center
05:11AM 41.0044 -93.9675 81° East 510 587 37,000  Level Chicago Center
05:12AM 41.0261 -93.7872 79° East 504 580 37,000  Level Chicago Center
05:13AM 41.0519 -93.6017 81° East 504 580 37,000  Level Chicago Center
05:14AM 41.0756 -93.4131 80° East 504 580 37,000  Level Chicago Center
05:15AM 41.0986 -93.2300 81° East 504 580 37,000  Level Chicago Center
05:16AM 41.1214 -93.0436 80° East 510 587 37,000  Level Chicago Center
05:17AM 41.1461 -92.8547 80° East 510 587 37,000  Level Chicago Center
05:18AM 41.1706 -92.6714 82° East 510 587 37,000  Level Chicago Center
05:19AM 41.1903 -92.4847 79° East 510 587 37,000  Level Chicago Center
05:20AM 41.2161 -92.3008 83° East 510 587 37,000  Level Chicago Center
05:21AM 41.2358 -92.0919 80° East 510 587 37,000  Level Chicago Center
05:22AM 41.2589 -91.9078 81° East 510 587 37,000  Level Chicago Center
05:23AM 41.2794 -91.7261 82° East 498 573 37,000  Level Chicago Center
05:24AM 41.2997 -91.5417 81° East 509 586 37,000  Level Chicago Center
05:25AM 41.3219 -91.3544 80° East 504 580 37,000  Level Chicago Center
05:26AM 41.3433 -91.1947 82° East 496 571 37,000  Level Chicago Center
05:27AM 41.3608 -91.0181 82° East 490 564 37,000  Level Chicago Center
05:28AM 41.3800 -90.8358 82° East 490 564 37,000  Level Chicago Center
05:29AM 41.3989 -90.6592 82° East 490 564 37,000  Level Chicago Center
05:30AM 41.4194 -90.4742 83° East 490 564 37,000  Level Chicago Center
05:31AM 41.4356 -90.2972 81° East 484 557 37,000  Level Chicago Center
05:32AM 41.4558 -90.1172 82° East 484 557 37,000  Level Chicago Center
05:33AM 41.4736 -89.9403 83° East 484 557 37,000  Level Chicago Center
05:34AM 41.4911 -89.7575 84° East 484 557 37,000  Level Chicago Center
05:35AM 41.5061 -89.5800 83° East 484 557 37,000  Level Chicago Center
05:36AM 41.5231 -89.3997 83° East 484 557 37,000  Level Chicago Center
05:37AM 41.5394 -89.2250 84° East 479 551 37,000  Level Chicago Center
05:38AM 41.5539 -89.0475 82° East 479 551 37,000  Level Chicago Center
05:39AM 41.5719 -88.8669 83° East 479 551 37,000  Level Chicago Center
05:40AM 41.5878 -88.6892 83° East 479 551 37,000  Level Chicago Center
05:41AM 41.6033 -88.5086 83° East 484 557 37,000  Level Chicago Center
05:42AM 41.6186 -88.3306 83° East 484 557 37,000  Level Chicago Center
05:43AM 41.6375 -88.1331 84° East 484 557 37,000  Level Chicago Center
05:44AM 41.6519 -87.9519 85° East 484 557 37,000 -360 Level Chicago Center
05:45AM 41.6642 -87.7711 85° East 484 557 36,300 -1,200 Descending Chicago Center
05:46AM 41.6764 -87.5958 83° East 484 557 34,600 -1,680 Descending Chicago Center
05:47AM 41.6919 -87.4117 84° East 484 557 33,000 -840 Descending Chicago Center
05:48AM 41.7075 -87.2250 86° East 491 565 33,000  Level Chicago Center
05:49AM 41.7164 -87.0383 86° East 502 578 33,000  Level Chicago Center
05:50AM 41.7250 -86.8569 86° East 502 578 33,000  Level Chicago Center
05:51AM 41.7333 -86.6731 86° East 497 572 33,000  Level Chicago Center
05:52AM 41.7436 -86.4889 88° East 497 572 33,000 -180 Level Chicago Center
05:53AM 41.7478 -86.3244 87° East 497 572 32,700 -1,200 Descending Chicago Center
05:54AM 41.7553 -86.1431 87° East 497 572 30,700 -2,040 Descending Chicago Center
05:55AM 41.7628 -85.9675 87° East 485 558 28,700 -2,160 Descending Chicago Center
05:57AM 41.7728 -85.6542 87° East 471 542 24,700 -1,920 Descending Cleveland Center
05:58AM 41.7811 -85.4597 87° East 476 548 23,400 -1,260 Descending Cleveland Center
05:59AM 41.7881 -85.2958 86° East 476 548 22,200 -1,200 Descending Cleveland Center
06:00AM 41.7969 -85.1239 87° East 476 548 21,000 -1,200 Descending Cleveland Center
06:01AM 41.8036 -84.9514 89° East 470 541 19,800 -1,080 Descending Cleveland Center
06:02AM 41.8061 -84.7761 88° East 470 541 18,900 -960 Descending Cleveland Center
06:03AM 41.8108 -84.5869 86° East 464 534 17,900 -1,440 Descending Cleveland Center
06:04AM 41.8161 -84.4925 90° East 433 498 16,600 -1,980 Descending Cleveland Center
06:04AM 41.8169 -84.3475 88° East 419 482 14,900 -1,920 Descending Cleveland Center
06:06AM 41.8222 -84.1750 83° East 415 478 12,700 -1,380 Descending Cleveland Center
06:07AM 41.8350 -84.0308 56° Northeast 378 435 12,000 -300 Descending Cleveland Center
06:08AM 41.8883 -83.9247 46° Northeast 351 404 12,100  Climbing Cleveland Center
06:09AM 41.9492 -83.8414 68° East 325 374 12,100 -60 Level Cleveland Center
06:10AM 41.9836 -83.7286 69° East 334 384 12,000 -60 Descending Cleveland Center
06:11AM 42.0250 -83.5853 61° Northeast 330 380 12,000  Level Cleveland Center
06:12AM 42.0606 -83.5003 North 325 374 12,000 -420 Level Cleveland Center
06:13AM 42.1419 -83.4928 356° North 262 302 11,300 -720 Descending Cleveland Center
06:14AM 42.2086 -83.4986 North 238 274 10,600 -1,140 Descending Cleveland Center
06:15AM 42.2756 -83.4878 25° Northeast 247 284 9,100 -1,440 Descending Cleveland Center
06:16AM 42.3347 -83.4511 21° North 234 269 7,700 -1,560 Descending Cleveland Center
06:17AM 42.3939 -83.4200 36° Northeast 222 255 6,000 -1,620 Descending Cleveland Center
06:18AM 42.4344 -83.3797 121° Southeast 221 254 4,600 -1,020 Descending Cleveland Center
06:19AM 42.4047 -83.3136 163° South 214 246 4,100 -600 Descending Cleveland Center
06:20AM 42.3389 -83.2856 207° Southwest 211 243 3,400 -720 Descending Cleveland Center
06:21AM 42.2964 -83.3147 210° Southwest 172 198 2,700 -960 Descending Cleveland Center
06:22AM 42.2519 -83.3492 210° Southwest 147 169 1,400 -1,080 Descending Cleveland Center